Aeroporto :
LOGIN :

Iscrizione | Disclaimer

   EN    FR    IT 

 










Sommario :    VFR   VFR Marginale   IFR   IFR Intensivo   IFR Molto Intensivo
Visibilità : 
Base nubi : 
>= 8 km
>= 3000ft
5 / 8 km
1000 / 3000 ft
1500m / 5 km
500 / 1000 ft
800 / 1500m
200 / 500 ft
< 800m
< 200 ft
Simboli :   Temporali  Nebbia  Neve Forte  Precipitazioni Forti  Vento > 20 kt
SIGMETs :   Varie  Temporali  Ghiacco  Turbolenza  Onda orograficha  Ceneri Vulcaniche






- Altitudine del aeroporto : 308 ft
- Codice IATA : POZ


EPPO - Poznan-Lawica

ULTIMO METAR :
  • 300100Z 25007KT CAVOK 08/05 Q1016

METARs OBSOLETI :
  • 300030Z 24007KT CAVOK 07/05 Q1016
  • 300000Z 22005KT CAVOK 07/05 Q1016
  • 292330Z 24007KT 9999 FEW036 07/05 Q1016
  • 292300Z 24008KT 9999 FEW028 07/05 Q1016
  • 292230Z 25007KT CAVOK 07/05 Q1016

TAF TAF EPPO
Valido dal 30 a 00 ore il 31 a 00 ore UTC


292330Z 3000/3024 25010KT 9999 SCT030
BECMG 3004/3006 19007KT
BECMG 3006/3009 BKN007 OVC020
BECMG 3009/3011 4000 RA BR BKN003 OVC013
BECMG 3016/3018 28010KT 2000 RADZ BR
BECMG 3018/3020 34004KT OVC001



MetMap, La meteo Aeronautica in un colpo d'occhio ! - Copyright ORBIFLY Dicembre 2007 - Disclaimer

ORBIFLY MET'MAP TEAM :

Programmazione e sviluppo : Alexandra Zaïnal
Concezione : Baudouin d'Aumeries
Aiuto per la programmazione : Marc-Olivier Méhu
Supporto tecnico e logistico : Manuel Goepfert
Aiuto per la traduzione : Arnaldo La Scala

Contatto : metmap@orbifly.com




FONTI E CREDITI :

   NOAA